Clarksville, TX

11:46 PM CDT on October 18, 2017 (GMT -0500)
Clarksville

Weather History for KLBR - December, 2013

Change the Weather History Date:

Thursday, December 19, 2013

  Actual Average (KPRX) Record (KPRX)
Temperature  
Mean Temperature 61 °F -  
Max Temperature 72 °F 50 °F 75 °F (2012)
Min Temperature 50 °F 31 °F 17 °F (1996)
Degree Days  
Heating Degree Days 4    
Growing Degree Days 11 (Base 50)    
Moisture  
Dew Point 52 °F    
Average Humidity 74    
Maximum Humidity 93    
Minimum Humidity 54    
Precipitation  
Precipitation 0.00 in - - ()
Sea Level Pressure  
Sea Level Pressure 29.91 in    
Wind  
Wind Speed 9 mph (SSE)    
Max Wind Speed 16 mph    
Max Gust Speed 24 mph    
Visibility 10 miles    
Events      
Averages and records for this station are not official NWS values.
T = Trace of Precipitation, MM = Missing Value Source: NWS Daily Summary

Daily Weather History Graph

Daily Weather History Graph

Search for Another Location

Airport or City:

Trip Planner

Search our weather history database for the weather conditions in past years. The results will help you decide how hot, cold, wet, or windy it might be!

Date:

Astronomy

Dec. 19, 2013 Rise Set
Actual Time 7:19 AM CST 5:15 PM CST
Civil Twilight 6:52 AM CST 5:42 PM CST
Nautical Twilight 6:21 AM CST 6:14 PM CST
Astronomical Twilight 5:50 AM CST 6:44 PM CST
Moon 7:36 PM CST 8:44 AM CST
Length of Visible Light 10h 50m
Length of Day
9h 55m
Waning Gibbous, 95% of the Moon is Illuminated
Dec 19
Waning Gibbous
Dec 25
Last Quarter
Jan 1
New
Jan 7
First Quarter
Jan 15
Full

Hourly Weather History & Observations

Time (CST) Temp. Dew Point Humidity Pressure Visibility Wind Dir Wind Speed Gust Speed Precip Events Conditions
12:15 AM 51.6 °F 40.3 °F 65% 30.05 in 10.0 mi SE 5.8 mph - N/A   Clear
12:35 AM 51.6 °F 41.5 °F 68% 30.05 in 10.0 mi SSE 6.9 mph - N/A   Clear
12:55 AM 52.2 °F 42.8 °F 70% 30.04 in 7.0 mi SSE 5.8 mph - N/A   Clear
1:15 AM 52.2 °F 43.7 °F 73% 30.03 in 10.0 mi SSE 6.9 mph - N/A   Clear
1:35 AM 52.3 °F 44.6 °F 75% 30.03 in 10.0 mi SSE 6.9 mph - N/A   Clear
1:55 AM 52.2 °F 45.1 °F 77% 30.03 in 10.0 mi SSE 6.9 mph - N/A   Clear
2:15 AM 52.0 °F 45.7 °F 79% 30.02 in 10.0 mi SSE 8.1 mph - N/A   Clear
2:35 AM 52.2 °F 46.4 °F 81% 30.02 in 10.0 mi SSE 8.1 mph - N/A   Clear
2:55 AM 52.5 °F 46.8 °F 81% 30.01 in 10.0 mi SSE 8.1 mph - N/A   Clear
3:15 AM 52.3 °F 46.9 °F 82% 30.02 in 10.0 mi SSE 6.9 mph - N/A   Clear
3:35 AM 52.5 °F 47.5 °F 83% 30.02 in 10.0 mi SSE 8.1 mph - N/A   Clear
3:55 AM 52.7 °F 47.8 °F 84% 30.01 in 10.0 mi SSE 8.1 mph - N/A   Clear
4:15 AM 52.7 °F 47.8 °F 84% 30.01 in 10.0 mi SSE 8.1 mph - N/A   Clear
4:35 AM 52.7 °F 48.2 °F 85% 30.01 in 10.0 mi SSE 8.1 mph - N/A   Clear
4:55 AM 52.9 °F 48.6 °F 85% 30.00 in 10.0 mi SSE 9.2 mph - N/A   Clear
5:15 AM 52.9 °F 48.6 °F 85% 29.99 in 10.0 mi SSE 11.5 mph - N/A   Clear
5:35 AM 52.9 °F 48.6 °F 85% 29.99 in 10.0 mi SSE 10.4 mph - N/A   Clear
5:55 AM 52.9 °F 48.6 °F 85% 29.99 in 10.0 mi SSE 9.2 mph - N/A   Scattered Clouds
6:15 AM 53.6 °F 48.7 °F 84% 29.98 in 10.0 mi SSE 10.4 mph - N/A   Overcast
6:35 AM 52.7 °F 48.2 °F 85% 29.97 in 10.0 mi SE 9.2 mph - N/A   Mostly Cloudy
6:55 AM 52.2 °F 48.4 °F 87% 29.98 in 10.0 mi SE 11.5 mph - N/A   Mostly Cloudy
7:15 AM 51.4 °F 48.6 °F 90% 29.98 in 10.0 mi SE 8.1 mph - N/A   Scattered Clouds
7:35 AM 50.9 °F 48.7 °F 92% 29.98 in 10.0 mi SE 8.1 mph - N/A   Scattered Clouds
7:55 AM 51.1 °F 49.1 °F 93% 29.98 in 10.0 mi SE 8.1 mph - N/A   Scattered Clouds
8:15 AM 51.1 °F 49.1 °F 93% 29.98 in 7.0 mi SE 8.1 mph - N/A   Overcast
8:35 AM 51.1 °F 49.1 °F 93% 29.98 in 10.0 mi SE 6.9 mph - N/A   Scattered Clouds
8:55 AM 51.3 °F 49.1 °F 92% 29.98 in 7.0 mi SE 5.8 mph - N/A   Scattered Clouds
9:15 AM 52.0 °F 49.5 °F 91% 29.99 in 7.0 mi SE 6.9 mph - N/A   Mostly Cloudy
9:35 AM 52.9 °F 50.0 °F 90% 29.99 in 7.0 mi SE 6.9 mph - N/A   Mostly Cloudy
9:55 AM 55.6 °F 51.3 °F 85% 29.99 in 10.0 mi SE 6.9 mph - N/A   Overcast
10:15 AM 57.4 °F 50.0 °F 76% 29.99 in 10.0 mi SE 8.1 mph - N/A   Mostly Cloudy
10:35 AM 60.1 °F 51.1 °F 72% 29.98 in 10.0 mi SSE 10.4 mph 16.1 mph N/A   Scattered Clouds
10:55 AM 62.1 °F 51.3 °F 68% 29.97 in 10.0 mi SSE 12.7 mph - N/A   Scattered Clouds
11:15 AM 63.1 °F 51.8 °F 66% 29.96 in 10.0 mi SSE 13.8 mph 19.6 mph N/A   Scattered Clouds
11:35 AM 64.2 °F 52.5 °F 66% 29.94 in 10.0 mi SSE 15.0 mph 21.9 mph N/A   Mostly Cloudy
11:55 AM 65.8 °F 52.9 °F 63% 29.92 in 10.0 mi South 10.4 mph 23.0 mph N/A   Mostly Cloudy
12:15 PM 68.0 °F 53.8 °F 60% 29.91 in 10.0 mi SSE 12.7 mph 21.9 mph N/A   Mostly Cloudy
12:35 PM 69.3 °F 53.8 °F 58% 29.89 in 10.0 mi SSE 16.1 mph 19.6 mph N/A   Scattered Clouds
12:55 PM 68.0 °F 53.8 °F 60% 29.88 in 10.0 mi South 12.7 mph 19.6 mph N/A   Mostly Cloudy
1:15 PM 69.8 °F 54.1 °F 57% 29.86 in 10.0 mi South 15.0 mph 19.6 mph N/A   Scattered Clouds
1:35 PM 69.1 °F 54.0 °F 58% 29.85 in 10.0 mi South 11.5 mph 20.7 mph N/A   Scattered Clouds
1:55 PM 69.8 °F 54.1 °F 57% 29.84 in 10.0 mi South 15.0 mph 18.4 mph N/A   Scattered Clouds
2:15 PM 70.0 °F 54.5 °F 58% 29.83 in 10.0 mi South 9.2 mph 18.4 mph N/A   Scattered Clouds
2:35 PM 71.6 °F 54.7 °F 55% 29.82 in 10.0 mi South 10.4 mph - N/A   Mostly Cloudy
2:55 PM 72.0 °F 54.3 °F 54% 29.82 in 10.0 mi South 15.0 mph 24.2 mph N/A   Mostly Cloudy
3:15 PM 71.8 °F 54.7 °F 55% 29.81 in 10.0 mi South 11.5 mph 19.6 mph N/A   Mostly Cloudy
3:35 PM 71.6 °F 54.9 °F 55% 29.81 in 10.0 mi South 10.4 mph 17.3 mph N/A   Mostly Cloudy
3:55 PM 71.6 °F 55.4 °F 57% 29.81 in 7.0 mi South 15.0 mph 21.9 mph N/A   Scattered Clouds
4:15 PM 71.1 °F 55.4 °F 58% 29.82 in 10.0 mi South 12.7 mph 18.4 mph N/A   Mostly Cloudy
4:35 PM 70.5 °F 55.6 °F 59% 29.81 in 10.0 mi SSE 8.1 mph - N/A   Scattered Clouds
4:55 PM 69.8 °F 55.8 °F 61% 29.81 in 7.0 mi SSE 10.4 mph - N/A   Scattered Clouds
5:15 PM 69.3 °F 55.9 °F 62% 29.81 in 10.0 mi SSE 8.1 mph - N/A   Mostly Cloudy
5:35 PM 68.9 °F 56.3 °F 64% 29.81 in 10.0 mi SSE 9.2 mph - N/A   Scattered Clouds
5:55 PM 67.6 °F 56.3 °F 67% 29.81 in 10.0 mi SSE 8.1 mph - N/A   Clear
6:15 PM 67.3 °F 56.3 °F 68% 29.81 in 10.0 mi SE 6.9 mph - N/A   Clear
6:35 PM 66.6 °F 56.3 °F 69% 29.81 in 10.0 mi SE 8.1 mph - N/A   Clear
6:55 PM 66.6 °F 56.5 °F 70% 29.81 in 10.0 mi SE 8.1 mph - N/A   Scattered Clouds
7:15 PM 66.2 °F 56.3 °F 70% 29.81 in 10.0 mi SE 8.1 mph - N/A   Scattered Clouds
7:35 PM 66.4 °F 57.0 °F 72% 29.81 in 10.0 mi SE 9.2 mph - N/A   Mostly Cloudy
7:55 PM 66.2 °F 57.2 °F 73% 29.81 in 10.0 mi SE 9.2 mph - N/A   Overcast
8:15 PM 65.7 °F 57.4 °F 75% 29.81 in 10.0 mi SE 10.4 mph 16.1 mph N/A   Mostly Cloudy
8:35 PM 65.5 °F 57.7 °F 76% 29.81 in 10.0 mi SSE 10.4 mph - N/A   Clear
8:55 PM 65.8 °F 58.1 °F 76% 29.81 in 10.0 mi SSE 11.5 mph - N/A   Clear
9:15 PM 65.8 °F 58.3 °F 77% 29.80 in 10.0 mi SSE 12.7 mph 17.3 mph N/A   Clear
9:35 PM 66.2 °F 58.5 °F 76% 29.80 in 10.0 mi SSE 13.8 mph 20.7 mph N/A   Clear
9:55 PM 66.2 °F 59.0 °F 78% 29.80 in 10.0 mi SSE 11.5 mph 20.7 mph N/A   Scattered Clouds
10:15 PM 66.4 °F 59.0 °F 77% 29.80 in 10.0 mi South 9.2 mph 20.7 mph N/A   Mostly Cloudy
10:35 PM 67.3 °F 59.5 °F 76% 29.81 in 10.0 mi South 11.5 mph 16.1 mph N/A   Overcast
10:55 PM 67.5 °F 59.9 °F 77% 29.81 in 10.0 mi South 10.4 mph - N/A   Mostly Cloudy
11:15 PM 67.6 °F 59.9 °F 76% 29.80 in 10.0 mi South 10.4 mph 18.4 mph N/A   Mostly Cloudy
11:35 PM 67.6 °F 59.9 °F 76% 29.80 in 10.0 mi South 9.2 mph - N/A   Mostly Cloudy
11:55 PM 67.5 °F 60.1 °F 77% 29.80 in 10.0 mi South 10.4 mph - N/A   Mostly Cloudy